sensor_id;sensor_type;location;lat;lon;timestamp;P1;durP1;ratioP1;P2;durP2;ratioP2
35634;SDS011;21757;43.610;1.440;2023-11-21T00:02:21;22.52;;;3.38;;
35634;SDS011;21757;43.610;1.440;2023-11-21T00:04:47;19.05;;;3.53;;
35634;SDS011;21757;43.610;1.440;2023-11-21T00:07:13;17.77;;;3.10;;
35634;SDS011;21757;43.610;1.440;2023-11-21T00:09:40;25.85;;;3.03;;
35634;SDS011;21757;43.610;1.440;2023-11-21T00:12:06;17.17;;;3.15;;
35634;SDS011;21757;43.610;1.440;2023-11-21T00:14:36;16.55;;;3.20;;
35634;SDS011;21757;43.610;1.440;2023-11-21T00:17:04;19.67;;;3.17;;
35634;SDS011;21757;43.610;1.440;2023-11-21T00:19:31;16.25;;;3.03;;
35634;SDS011;21757;43.610;1.440;2023-11-21T00:21:57;18.13;;;3.38;;
35634;SDS011;21757;43.610;1.440;2023-11-21T00:24:23;14.75;;;3.22;;
35634;SDS011;21757;43.610;1.440;2023-11-21T00:26:50;18.05;;;3.00;;
35634;SDS011;21757;43.610;1.440;2023-11-21T00:29:15;20.45;;;3.40;;
35634;SDS011;21757;43.610;1.440;2023-11-21T00:31:42;13.32;;;2.67;;
35634;SDS011;21757;43.610;1.440;2023-11-21T00:34:09;21.50;;;3.15;;
35634;SDS011;21757;43.610;1.440;2023-11-21T00:36:34;19.33;;;3.25;;
35634;SDS011;21757;43.610;1.440;2023-11-21T00:39:00;19.48;;;3.38;;
35634;SDS011;21757;43.610;1.440;2023-11-21T00:41:27;21.77;;;3.55;;
35634;SDS011;21757;43.610;1.440;2023-11-21T00:43:52;19.80;;;3.05;;
35634;SDS011;21757;43.610;1.440;2023-11-21T00:46:19;16.00;;;3.05;;
35634;SDS011;21757;43.610;1.440;2023-11-21T00:48:44;14.45;;;2.80;;
35634;SDS011;21757;43.610;1.440;2023-11-21T00:51:10;14.05;;;2.83;;
35634;SDS011;21757;43.610;1.440;2023-11-21T00:53:35;12.93;;;2.90;;
35634;SDS011;21757;43.610;1.440;2023-11-21T00:56:01;15.43;;;2.83;;
35634;SDS011;21757;43.610;1.440;2023-11-21T00:58:27;14.82;;;2.40;;
35634;SDS011;21757;43.610;1.440;2023-11-21T01:00:53;17.92;;;2.58;;
35634;SDS011;21757;43.610;1.440;2023-11-21T01:03:19;11.90;;;2.35;;
35634;SDS011;21757;43.610;1.440;2023-11-21T01:05:45;16.25;;;2.75;;
35634;SDS011;21757;43.610;1.440;2023-11-21T01:08:11;14.30;;;2.88;;
35634;SDS011;21757;43.610;1.440;2023-11-21T01:10:37;15.63;;;2.85;;
35634;SDS011;21757;43.610;1.440;2023-11-21T01:13:03;13.23;;;2.38;;
35634;SDS011;21757;43.610;1.440;2023-11-21T01:15:32;15.38;;;2.08;;
35634;SDS011;21757;43.610;1.440;2023-11-21T01:17:58;12.38;;;2.00;;
35634;SDS011;21757;43.610;1.440;2023-11-21T01:20:24;8.95;;;1.70;;
35634;SDS011;21757;43.610;1.440;2023-11-21T01:22:49;10.40;;;2.30;;
35634;SDS011;21757;43.610;1.440;2023-11-21T01:25:15;15.23;;;1.98;;
35634;SDS011;21757;43.610;1.440;2023-11-21T01:27:41;13.00;;;2.20;;
35634;SDS011;21757;43.610;1.440;2023-11-21T01:30:08;9.05;;;1.52;;
35634;SDS011;21757;43.610;1.440;2023-11-21T01:32:36;12.73;;;1.65;;
35634;SDS011;21757;43.610;1.440;2023-11-21T01:35:02;12.15;;;1.75;;
35634;SDS011;21757;43.610;1.440;2023-11-21T01:37:30;14.93;;;2.28;;
35634;SDS011;21757;43.610;1.440;2023-11-21T01:39:56;15.32;;;1.90;;
35634;SDS011;21757;43.610;1.440;2023-11-21T01:42:21;10.73;;;1.73;;
35634;SDS011;21757;43.610;1.440;2023-11-21T01:44:47;13.00;;;1.60;;
35634;SDS011;21757;43.610;1.440;2023-11-21T01:47:14;12.10;;;1.65;;
35634;SDS011;21757;43.610;1.440;2023-11-21T01:49:40;15.07;;;1.73;;
35634;SDS011;21757;43.610;1.440;2023-11-21T01:52:10;8.35;;;1.45;;
35634;SDS011;21757;43.610;1.440;2023-11-21T01:54:36;9.95;;;1.38;;
35634;SDS011;21757;43.610;1.440;2023-11-21T01:57:02;11.10;;;1.55;;
35634;SDS011;21757;43.610;1.440;2023-11-21T01:59:35;10.07;;;1.63;;
35634;SDS011;21757;43.610;1.440;2023-11-21T02:02:05;12.10;;;1.83;;
35634;SDS011;21757;43.610;1.440;2023-11-21T02:04:32;11.70;;;1.65;;
35634;SDS011;21757;43.610;1.440;2023-11-21T02:06:58;12.20;;;1.60;;
35634;SDS011;21757;43.610;1.440;2023-11-21T02:09:28;12.10;;;2.10;;
35634;SDS011;21757;43.610;1.440;2023-11-21T02:11:58;11.23;;;1.85;;
35634;SDS011;21757;43.610;1.440;2023-11-21T02:14:24;12.25;;;2.03;;
35634;SDS011;21757;43.610;1.440;2023-11-21T02:16:51;14.55;;;1.88;;
35634;SDS011;21757;43.610;1.440;2023-11-21T02:19:19;10.25;;;1.50;;
35634;SDS011;21757;43.610;1.440;2023-11-21T02:21:47;11.38;;;1.75;;
35634;SDS011;21757;43.610;1.440;2023-11-21T02:24:14;10.85;;;2.15;;
35634;SDS011;21757;43.610;1.440;2023-11-21T02:26:42;9.73;;;1.67;;
35634;SDS011;21757;43.610;1.440;2023-11-21T02:29:08;11.88;;;1.55;;
35634;SDS011;21757;43.610;1.440;2023-11-21T02:31:37;15.98;;;1.92;;
35634;SDS011;21757;43.610;1.440;2023-11-21T02:34:10;10.57;;;2.05;;
35634;SDS011;21757;43.610;1.440;2023-11-21T02:36:38;12.77;;;1.85;;
35634;SDS011;21757;43.610;1.440;2023-11-21T02:39:04;11.05;;;1.60;;
35634;SDS011;21757;43.610;1.440;2023-11-21T02:41:29;8.10;;;1.70;;
35634;SDS011;21757;43.610;1.440;2023-11-21T02:43:55;7.75;;;1.83;;
35634;SDS011;21757;43.610;1.440;2023-11-21T02:46:21;9.15;;;1.73;;
35634;SDS011;21757;43.610;1.440;2023-11-21T02:48:47;11.52;;;1.92;;
35634;SDS011;21757;43.610;1.440;2023-11-21T02:51:12;11.23;;;1.50;;
35634;SDS011;21757;43.610;1.440;2023-11-21T02:53:38;7.80;;;1.38;;
35634;SDS011;21757;43.610;1.440;2023-11-21T02:56:04;9.10;;;1.50;;
35634;SDS011;21757;43.610;1.440;2023-11-21T02:58:30;11.35;;;1.55;;
35634;SDS011;21757;43.610;1.440;2023-11-21T03:00:55;10.60;;;1.77;;
35634;SDS011;21757;43.610;1.440;2023-11-21T03:03:21;9.50;;;1.58;;
35634;SDS011;21757;43.610;1.440;2023-11-21T03:05:49;8.70;;;1.30;;
35634;SDS011;21757;43.610;1.440;2023-11-21T03:08:15;7.60;;;1.27;;
35634;SDS011;21757;43.610;1.440;2023-11-21T03:10:40;11.27;;;1.70;;
35634;SDS011;21757;43.610;1.440;2023-11-21T03:13:06;8.05;;;1.48;;
35634;SDS011;21757;43.610;1.440;2023-11-21T03:15:32;11.27;;;1.67;;
35634;SDS011;21757;43.610;1.440;2023-11-21T03:18:00;7.00;;;1.33;;
35634;SDS011;21757;43.610;1.440;2023-11-21T03:20:26;12.00;;;1.40;;
35634;SDS011;21757;43.610;1.440;2023-11-21T03:22:51;7.55;;;1.40;;
35634;SDS011;21757;43.610;1.440;2023-11-21T03:25:17;6.15;;;1.20;;
35634;SDS011;21757;43.610;1.440;2023-11-21T03:27:43;11.95;;;1.77;;
35634;SDS011;21757;43.610;1.440;2023-11-21T03:30:09;9.65;;;1.45;;
35634;SDS011;21757;43.610;1.440;2023-11-21T03:32:36;9.00;;;1.63;;
35634;SDS011;21757;43.610;1.440;2023-11-21T03:35:01;5.43;;;1.25;;
35634;SDS011;21757;43.610;1.440;2023-11-21T03:37:28;6.80;;;1.30;;
35634;SDS011;21757;43.610;1.440;2023-11-21T03:39:54;7.68;;;1.60;;
35634;SDS011;21757;43.610;1.440;2023-11-21T03:42:21;9.98;;;1.60;;
35634;SDS011;21757;43.610;1.440;2023-11-21T03:44:46;8.77;;;1.70;;
35634;SDS011;21757;43.610;1.440;2023-11-21T03:47:12;10.10;;;1.33;;
35634;SDS011;21757;43.610;1.440;2023-11-21T03:49:38;10.73;;;2.10;;
35634;SDS011;21757;43.610;1.440;2023-11-21T03:52:04;11.32;;;1.25;;
35634;SDS011;21757;43.610;1.440;2023-11-21T03:54:30;14.32;;;1.35;;
35634;SDS011;21757;43.610;1.440;2023-11-21T03:56:55;11.65;;;1.42;;
35634;SDS011;21757;43.610;1.440;2023-11-21T03:59:21;11.95;;;2.13;;
35634;SDS011;21757;43.610;1.440;2023-11-21T04:01:49;7.82;;;1.60;;
35634;SDS011;21757;43.610;1.440;2023-11-21T04:04:15;9.38;;;1.73;;
35634;SDS011;21757;43.610;1.440;2023-11-21T04:06:41;10.75;;;1.48;;
35634;SDS011;21757;43.610;1.440;2023-11-21T04:09:06;8.63;;;1.50;;
35634;SDS011;21757;43.610;1.440;2023-11-21T04:11:32;12.63;;;1.48;;
35634;SDS011;21757;43.610;1.440;2023-11-21T04:13:57;11.65;;;1.75;;
35634;SDS011;21757;43.610;1.440;2023-11-21T04:16:24;8.77;;;1.50;;
35634;SDS011;21757;43.610;1.440;2023-11-21T04:18:49;7.88;;;1.55;;
35634;SDS011;21757;43.610;1.440;2023-11-21T04:21:15;8.82;;;1.60;;
35634;SDS011;21757;43.610;1.440;2023-11-21T04:23:41;12.93;;;2.25;;
35634;SDS011;21757;43.610;1.440;2023-11-21T04:26:07;13.88;;;2.08;;
35634;SDS011;21757;43.610;1.440;2023-11-21T04:28:33;14.75;;;1.52;;
35634;SDS011;21757;43.610;1.440;2023-11-21T04:30:59;9.40;;;1.40;;
35634;SDS011;21757;43.610;1.440;2023-11-21T04:33:25;8.82;;;1.30;;
35634;SDS011;21757;43.610;1.440;2023-11-21T04:35:51;12.98;;;1.88;;
35634;SDS011;21757;43.610;1.440;2023-11-21T04:38:16;10.82;;;1.50;;
35634;SDS011;21757;43.610;1.440;2023-11-21T04:40:42;8.82;;;1.52;;
35634;SDS011;21757;43.610;1.440;2023-11-21T04:43:07;10.25;;;1.63;;
35634;SDS011;21757;43.610;1.440;2023-11-21T04:45:33;10.95;;;1.90;;
35634;SDS011;21757;43.610;1.440;2023-11-21T04:47:59;12.57;;;1.88;;
35634;SDS011;21757;43.610;1.440;2023-11-21T04:50:25;9.93;;;2.00;;
35634;SDS011;21757;43.610;1.440;2023-11-21T04:52:53;19.08;;;1.92;;
35634;SDS011;21757;43.610;1.440;2023-11-21T04:55:19;18.00;;;2.17;;
35634;SDS011;21757;43.610;1.440;2023-11-21T04:57:44;10.98;;;1.60;;
35634;SDS011;21757;43.610;1.440;2023-11-21T05:00:12;14.48;;;1.60;;
35634;SDS011;21757;43.610;1.440;2023-11-21T05:02:38;10.70;;;1.52;;
35634;SDS011;21757;43.610;1.440;2023-11-21T05:05:05;9.13;;;1.40;;
35634;SDS011;21757;43.610;1.440;2023-11-21T05:07:31;10.10;;;1.40;;
35634;SDS011;21757;43.610;1.440;2023-11-21T05:09:57;11.52;;;1.80;;
35634;SDS011;21757;43.610;1.440;2023-11-21T05:12:23;13.93;;;1.58;;
35634;SDS011;21757;43.610;1.440;2023-11-21T05:14:49;10.15;;;1.98;;
35634;SDS011;21757;43.610;1.440;2023-11-21T05:17:16;10.85;;;1.50;;
35634;SDS011;21757;43.610;1.440;2023-11-21T05:19:42;11.10;;;1.70;;
35634;SDS011;21757;43.610;1.440;2023-11-21T05:22:08;11.35;;;1.73;;
35634;SDS011;21757;43.610;1.440;2023-11-21T05:24:33;5.00;;;1.17;;
35634;SDS011;21757;43.610;1.440;2023-11-21T05:27:00;7.50;;;1.95;;
35634;SDS011;21757;43.610;1.440;2023-11-21T05:29:26;27.90;;;14.27;;
35634;SDS011;21757;43.610;1.440;2023-11-21T05:31:52;17.13;;;5.30;;
35634;SDS011;21757;43.610;1.440;2023-11-21T05:34:18;12.88;;;3.60;;
35634;SDS011;21757;43.610;1.440;2023-11-21T05:36:45;12.25;;;3.20;;
35634;SDS011;21757;43.610;1.440;2023-11-21T05:39:11;8.38;;;1.48;;
35634;SDS011;21757;43.610;1.440;2023-11-21T05:41:37;12.85;;;1.88;;
35634;SDS011;21757;43.610;1.440;2023-11-21T05:44:02;8.52;;;1.92;;
35634;SDS011;21757;43.610;1.440;2023-11-21T05:46:28;11.07;;;1.75;;
35634;SDS011;21757;43.610;1.440;2023-11-21T05:48:54;11.63;;;3.15;;
35634;SDS011;21757;43.610;1.440;2023-11-21T05:51:20;12.38;;;2.58;;
35634;SDS011;21757;43.610;1.440;2023-11-21T05:53:45;8.32;;;1.70;;
35634;SDS011;21757;43.610;1.440;2023-11-21T05:56:11;12.88;;;3.90;;
35634;SDS011;21757;43.610;1.440;2023-11-21T05:58:38;11.60;;;2.05;;
35634;SDS011;21757;43.610;1.440;2023-11-21T06:01:05;13.35;;;1.80;;
35634;SDS011;21757;43.610;1.440;2023-11-21T06:03:34;6.47;;;1.40;;
35634;SDS011;21757;43.610;1.440;2023-11-21T06:06:00;10.45;;;1.60;;
35634;SDS011;21757;43.610;1.440;2023-11-21T06:08:25;10.77;;;1.70;;
35634;SDS011;21757;43.610;1.440;2023-11-21T06:10:51;11.00;;;1.90;;
35634;SDS011;21757;43.610;1.440;2023-11-21T06:13:17;8.35;;;1.83;;
35634;SDS011;21757;43.610;1.440;2023-11-21T06:15:49;12.32;;;1.83;;
35634;SDS011;21757;43.610;1.440;2023-11-21T06:18:15;10.43;;;1.67;;
35634;SDS011;21757;43.610;1.440;2023-11-21T06:20:41;8.10;;;1.48;;
35634;SDS011;21757;43.610;1.440;2023-11-21T06:23:06;8.55;;;1.45;;
35634;SDS011;21757;43.610;1.440;2023-11-21T06:25:32;12.32;;;2.05;;
35634;SDS011;21757;43.610;1.440;2023-11-21T06:28:01;10.32;;;1.92;;
35634;SDS011;21757;43.610;1.440;2023-11-21T06:30:26;6.80;;;1.27;;
35634;SDS011;21757;43.610;1.440;2023-11-21T06:32:54;5.93;;;1.45;;
35634;SDS011;21757;43.610;1.440;2023-11-21T06:35:20;8.95;;;1.70;;
35634;SDS011;21757;43.610;1.440;2023-11-21T06:37:46;5.38;;;1.77;;
35634;SDS011;21757;43.610;1.440;2023-11-21T06:40:12;7.30;;;1.42;;
35634;SDS011;21757;43.610;1.440;2023-11-21T06:42:40;7.30;;;1.30;;
35634;SDS011;21757;43.610;1.440;2023-11-21T06:45:06;8.23;;;1.60;;
35634;SDS011;21757;43.610;1.440;2023-11-21T06:47:33;9.20;;;2.00;;
35634;SDS011;21757;43.610;1.440;2023-11-21T06:49:59;8.38;;;1.67;;
35634;SDS011;21757;43.610;1.440;2023-11-21T06:52:25;8.30;;;1.52;;
35634;SDS011;21757;43.610;1.440;2023-11-21T06:54:51;9.73;;;1.55;;
35634;SDS011;21757;43.610;1.440;2023-11-21T06:57:16;6.30;;;1.10;;
35634;SDS011;21757;43.610;1.440;2023-11-21T06:59:42;8.57;;;1.60;;
35634;SDS011;21757;43.610;1.440;2023-11-21T07:02:08;7.82;;;1.10;;
35634;SDS011;21757;43.610;1.440;2023-11-21T07:04:34;11.05;;;1.40;;
35634;SDS011;21757;43.610;1.440;2023-11-21T07:07:01;8.30;;;1.67;;
35634;SDS011;21757;43.610;1.440;2023-11-21T07:09:27;8.10;;;1.80;;
35634;SDS011;21757;43.610;1.440;2023-11-21T07:11:53;4.32;;;1.20;;
35634;SDS011;21757;43.610;1.440;2023-11-21T07:14:19;8.88;;;1.48;;
35634;SDS011;21757;43.610;1.440;2023-11-21T07:16:48;5.03;;;1.13;;
35634;SDS011;21757;43.610;1.440;2023-11-21T07:19:14;7.70;;;1.60;;
35634;SDS011;21757;43.610;1.440;2023-11-21T07:21:40;4.60;;;1.23;;
35634;SDS011;21757;43.610;1.440;2023-11-21T07:24:06;7.40;;;1.58;;
35634;SDS011;21757;43.610;1.440;2023-11-21T07:26:33;6.55;;;1.70;;
35634;SDS011;21757;43.610;1.440;2023-11-21T07:29:00;6.25;;;1.55;;
35634;SDS011;21757;43.610;1.440;2023-11-21T07:31:26;7.78;;;1.50;;
35634;SDS011;21757;43.610;1.440;2023-11-21T07:33:52;5.60;;;1.30;;
35634;SDS011;21757;43.610;1.440;2023-11-21T07:36:18;8.23;;;1.58;;
35634;SDS011;21757;43.610;1.440;2023-11-21T07:38:45;9.95;;;1.95;;
35634;SDS011;21757;43.610;1.440;2023-11-21T07:41:12;6.82;;;1.60;;
35634;SDS011;21757;43.610;1.440;2023-11-21T07:43:40;4.10;;;1.40;;
35634;SDS011;21757;43.610;1.440;2023-11-21T07:46:07;7.25;;;1.50;;
35634;SDS011;21757;43.610;1.440;2023-11-21T07:48:33;5.80;;;1.50;;
35634;SDS011;21757;43.610;1.440;2023-11-21T07:50:59;10.40;;;1.83;;
35634;SDS011;21757;43.610;1.440;2023-11-21T07:53:26;5.22;;;1.45;;
35634;SDS011;21757;43.610;1.440;2023-11-21T07:55:54;5.50;;;1.55;;
35634;SDS011;21757;43.610;1.440;2023-11-21T07:58:20;2.75;;;1.27;;
35634;SDS011;21757;43.610;1.440;2023-11-21T08:00:45;8.52;;;1.83;;
35634;SDS011;21757;43.610;1.440;2023-11-21T08:03:13;7.30;;;1.50;;
35634;SDS011;21757;43.610;1.440;2023-11-21T08:05:38;5.75;;;1.58;;
35634;SDS011;21757;43.610;1.440;2023-11-21T08:08:04;3.75;;;1.60;;
35634;SDS011;21757;43.610;1.440;2023-11-21T08:10:31;6.13;;;2.95;;
35634;SDS011;21757;43.610;1.440;2023-11-21T08:12:57;9.23;;;3.08;;
35634;SDS011;21757;43.610;1.440;2023-11-21T08:15:23;9.27;;;4.28;;
35634;SDS011;21757;43.610;1.440;2023-11-21T08:17:49;6.47;;;2.70;;
35634;SDS011;21757;43.610;1.440;2023-11-21T08:20:14;6.57;;;1.75;;
35634;SDS011;21757;43.610;1.440;2023-11-21T08:22:41;8.38;;;2.83;;
35634;SDS011;21757;43.610;1.440;2023-11-21T08:25:07;14.75;;;6.53;;
35634;SDS011;21757;43.610;1.440;2023-11-21T08:27:33;4.45;;;1.90;;
35634;SDS011;21757;43.610;1.440;2023-11-21T08:30:00;10.95;;;5.00;;
35634;SDS011;21757;43.610;1.440;2023-11-21T08:32:29;2.78;;;1.70;;
35634;SDS011;21757;43.610;1.440;2023-11-21T08:34:58;4.68;;;1.50;;
35634;SDS011;21757;43.610;1.440;2023-11-21T08:37:25;6.13;;;1.67;;
35634;SDS011;21757;43.610;1.440;2023-11-21T08:39:52;7.35;;;1.70;;
35634;SDS011;21757;43.610;1.440;2023-11-21T08:42:18;5.85;;;1.70;;
35634;SDS011;21757;43.610;1.440;2023-11-21T08:44:44;5.55;;;1.50;;
35634;SDS011;21757;43.610;1.440;2023-11-21T08:47:10;5.95;;;2.17;;
35634;SDS011;21757;43.610;1.440;2023-11-21T08:49:36;8.23;;;3.20;;
35634;SDS011;21757;43.610;1.440;2023-11-21T08:52:03;4.28;;;1.67;;
35634;SDS011;21757;43.610;1.440;2023-11-21T08:54:30;4.22;;;1.52;;
35634;SDS011;21757;43.610;1.440;2023-11-21T08:56:56;8.20;;;3.60;;
35634;SDS011;21757;43.610;1.440;2023-11-21T08:59:23;8.45;;;2.92;;
35634;SDS011;21757;43.610;1.440;2023-11-21T09:01:52;8.10;;;1.58;;
35634;SDS011;21757;43.610;1.440;2023-11-21T09:04:17;7.80;;;2.20;;
35634;SDS011;21757;43.610;1.440;2023-11-21T09:06:43;6.93;;;2.50;;
35634;SDS011;21757;43.610;1.440;2023-11-21T09:09:09;10.45;;;3.30;;
35634;SDS011;21757;43.610;1.440;2023-11-21T09:11:36;5.97;;;1.52;;
35634;SDS011;21757;43.610;1.440;2023-11-21T09:14:02;4.82;;;1.48;;
35634;SDS011;21757;43.610;1.440;2023-11-21T09:16:28;7.28;;;1.80;;
35634;SDS011;21757;43.610;1.440;2023-11-21T09:18:54;3.53;;;1.42;;
35634;SDS011;21757;43.610;1.440;2023-11-21T09:21:20;5.30;;;1.50;;
35634;SDS011;21757;43.610;1.440;2023-11-21T09:23:46;4.78;;;1.48;;
35634;SDS011;21757;43.610;1.440;2023-11-21T09:26:13;5.30;;;1.27;;
35634;SDS011;21757;43.610;1.440;2023-11-21T09:28:41;7.60;;;1.92;;
35634;SDS011;21757;43.610;1.440;2023-11-21T09:31:11;3.60;;;1.17;;
35634;SDS011;21757;43.610;1.440;2023-11-21T09:33:37;4.75;;;1.23;;
35634;SDS011;21757;43.610;1.440;2023-11-21T09:36:03;9.45;;;1.60;;
35634;SDS011;21757;43.610;1.440;2023-11-21T09:38:30;5.80;;;1.40;;
35634;SDS011;21757;43.610;1.440;2023-11-21T09:40:56;6.28;;;1.40;;
35634;SDS011;21757;43.610;1.440;2023-11-21T09:43:23;3.95;;;1.20;;
35634;SDS011;21757;43.610;1.440;2023-11-21T09:45:54;6.43;;;1.30;;
35634;SDS011;21757;43.610;1.440;2023-11-21T09:48:27;4.70;;;1.45;;
35634;SDS011;21757;43.610;1.440;2023-11-21T09:50:55;3.35;;;1.20;;
35634;SDS011;21757;43.610;1.440;2023-11-21T09:53:22;6.75;;;1.20;;
35634;SDS011;21757;43.610;1.440;2023-11-21T09:55:52;4.68;;;1.45;;
35634;SDS011;21757;43.610;1.440;2023-11-21T09:58:19;3.15;;;1.50;;
35634;SDS011;21757;43.610;1.440;2023-11-21T10:00:47;4.93;;;1.52;;
35634;SDS011;21757;43.610;1.440;2023-11-21T10:03:13;4.70;;;1.23;;
35634;SDS011;21757;43.610;1.440;2023-11-21T10:05:41;2.50;;;1.05;;
35634;SDS011;21757;43.610;1.440;2023-11-21T10:08:08;2.75;;;1.05;;
35634;SDS011;21757;43.610;1.440;2023-11-21T10:10:35;4.68;;;1.45;;
35634;SDS011;21757;43.610;1.440;2023-11-21T10:13:06;5.70;;;1.30;;
35634;SDS011;21757;43.610;1.440;2023-11-21T10:15:35;3.20;;;1.20;;
35634;SDS011;21757;43.610;1.440;2023-11-21T10:18:02;4.45;;;1.30;;
35634;SDS011;21757;43.610;1.440;2023-11-21T10:20:28;5.03;;;1.52;;
35634;SDS011;21757;43.610;1.440;2023-11-21T10:23:00;4.45;;;1.30;;
35634;SDS011;21757;43.610;1.440;2023-11-21T10:25:30;2.00;;;1.05;;
35634;SDS011;21757;43.610;1.440;2023-11-21T10:27:59;3.50;;;1.00;;
35634;SDS011;21757;43.610;1.440;2023-11-21T10:30:37;3.25;;;1.02;;
35634;SDS011;21757;43.610;1.440;2023-11-21T10:33:06;3.35;;;0.90;;
35634;SDS011;21757;43.610;1.440;2023-11-21T10:38:12;3.22;;;1.00;;
35634;SDS011;21757;43.610;1.440;2023-11-21T10:40:40;4.45;;;1.05;;
35634;SDS011;21757;43.610;1.440;2023-11-21T10:43:06;4.53;;;0.90;;
35634;SDS011;21757;43.610;1.440;2023-11-21T10:45:37;2.30;;;1.20;;
35634;SDS011;21757;43.610;1.440;2023-11-21T10:48:06;2.28;;;1.08;;
35634;SDS011;21757;43.610;1.440;2023-11-21T10:50:36;3.08;;;0.98;;
35634;SDS011;21757;43.610;1.440;2023-11-21T10:53:03;2.45;;;1.05;;
35634;SDS011;21757;43.610;1.440;2023-11-21T10:55:33;4.22;;;1.33;;
35634;SDS011;21757;43.610;1.440;2023-11-21T10:58:00;2.75;;;1.27;;
35634;SDS011;21757;43.610;1.440;2023-11-21T11:00:30;2.75;;;1.20;;
35634;SDS011;21757;43.610;1.440;2023-11-21T11:02:57;3.35;;;1.50;;
35634;SDS011;21757;43.610;1.440;2023-11-21T11:05:25;6.68;;;2.55;;
35634;SDS011;21757;43.610;1.440;2023-11-21T11:08:16;5.07;;;1.40;;
35634;SDS011;21757;43.610;1.440;2023-11-21T11:10:52;8.15;;;2.08;;
35634;SDS011;21757;43.610;1.440;2023-11-21T11:13:19;8.30;;;2.03;;
35634;SDS011;21757;43.610;1.440;2023-11-21T11:15:49;3.80;;;2.22;;
35634;SDS011;21757;43.610;1.440;2023-11-21T11:18:16;3.97;;;2.28;;
35634;SDS011;21757;43.610;1.440;2023-11-21T11:20:42;11.25;;;2.47;;
35634;SDS011;21757;43.610;1.440;2023-11-21T11:23:32;36.63;;;3.70;;
35634;SDS011;21757;43.610;1.440;2023-11-21T11:34:29;9.02;;;3.55;;
35634;SDS011;21757;43.610;1.440;2023-11-21T11:37:06;9.60;;;3.90;;
35634;SDS011;21757;43.610;1.440;2023-11-21T11:39:38;8.88;;;4.05;;
35634;SDS011;21757;43.610;1.440;2023-11-21T11:42:10;8.25;;;3.10;;
35634;SDS011;21757;43.610;1.440;2023-11-21T11:47:20;7.90;;;3.20;;
35634;SDS011;21757;43.610;1.440;2023-11-21T11:50:08;11.43;;;4.03;;
35634;SDS011;21757;43.610;1.440;2023-11-21T11:52:50;7.65;;;3.63;;
35634;SDS011;21757;43.610;1.440;2023-11-21T11:55:17;7.68;;;4.40;;
35634;SDS011;21757;43.610;1.440;2023-11-21T11:57:45;10.32;;;4.07;;
35634;SDS011;21757;43.610;1.440;2023-11-21T12:02:51;11.43;;;3.65;;
35634;SDS011;21757;43.610;1.440;2023-11-21T12:05:18;5.97;;;2.80;;
35634;SDS011;21757;43.610;1.440;2023-11-21T12:10:17;10.93;;;3.88;;
35634;SDS011;21757;43.610;1.440;2023-11-21T12:12:45;8.50;;;3.55;;
35634;SDS011;21757;43.610;1.440;2023-11-21T12:15:15;9.10;;;3.90;;
35634;SDS011;21757;43.610;1.440;2023-11-21T12:17:42;5.35;;;2.50;;
35634;SDS011;21757;43.610;1.440;2023-11-21T12:20:09;7.88;;;2.58;;
35634;SDS011;21757;43.610;1.440;2023-11-21T12:25:15;4.03;;;1.70;;
35634;SDS011;21757;43.610;1.440;2023-11-21T12:27:43;2.78;;;1.40;;
35634;SDS011;21757;43.610;1.440;2023-11-21T12:30:11;5.70;;;2.00;;
35634;SDS011;21757;43.610;1.440;2023-11-21T12:32:41;4.10;;;2.05;;
35634;SDS011;21757;43.610;1.440;2023-11-21T12:35:10;6.78;;;2.30;;
35634;SDS011;21757;43.610;1.440;2023-11-21T12:37:37;5.57;;;1.85;;
35634;SDS011;21757;43.610;1.440;2023-11-21T12:40:05;4.38;;;1.92;;
35634;SDS011;21757;43.610;1.440;2023-11-21T12:42:32;3.53;;;1.80;;
35634;SDS011;21757;43.610;1.440;2023-11-21T12:47:46;5.28;;;2.67;;
35634;SDS011;21757;43.610;1.440;2023-11-21T12:50:17;4.85;;;2.95;;
35634;SDS011;21757;43.610;1.440;2023-11-21T12:52:46;4.45;;;2.10;;
35634;SDS011;21757;43.610;1.440;2023-11-21T12:55:16;3.30;;;2.60;;
35634;SDS011;21757;43.610;1.440;2023-11-21T12:57:47;3.87;;;2.00;;
35634;SDS011;21757;43.610;1.440;2023-11-21T13:00:20;6.13;;;2.22;;
35634;SDS011;21757;43.610;1.440;2023-11-21T13:02:56;4.97;;;2.38;;
35634;SDS011;21757;43.610;1.440;2023-11-21T13:05:27;3.15;;;1.67;;
35634;SDS011;21757;43.610;1.440;2023-11-21T13:07:59;5.10;;;2.45;;
35634;SDS011;21757;43.610;1.440;2023-11-21T13:10:28;6.03;;;2.58;;
35634;SDS011;21757;43.610;1.440;2023-11-21T13:12:56;9.55;;;5.68;;
35634;SDS011;21757;43.610;1.440;2023-11-21T13:15:24;4.95;;;2.50;;
35634;SDS011;21757;43.610;1.440;2023-11-21T13:17:50;4.30;;;2.38;;
35634;SDS011;21757;43.610;1.440;2023-11-21T13:20:17;10.27;;;2.88;;
35634;SDS011;21757;43.610;1.440;2023-11-21T13:22:52;6.25;;;2.60;;
35634;SDS011;21757;43.610;1.440;2023-11-21T13:25:23;4.57;;;2.55;;
35634;SDS011;21757;43.610;1.440;2023-11-21T13:27:49;9.80;;;3.05;;
35634;SDS011;21757;43.610;1.440;2023-11-21T13:30:16;3.10;;;2.45;;
35634;SDS011;21757;43.610;1.440;2023-11-21T13:32:43;4.70;;;2.10;;
35634;SDS011;21757;43.610;1.440;2023-11-21T13:35:09;3.85;;;2.20;;
35634;SDS011;21757;43.610;1.440;2023-11-21T13:37:46;5.07;;;1.80;;
35634;SDS011;21757;43.610;1.440;2023-11-21T13:40:21;3.75;;;2.50;;
35634;SDS011;21757;43.610;1.440;2023-11-21T13:42:51;5.90;;;2.45;;
35634;SDS011;21757;43.610;1.440;2023-11-21T13:45:19;4.47;;;2.20;;
35634;SDS011;21757;43.610;1.440;2023-11-21T13:47:48;4.47;;;2.50;;
35634;SDS011;21757;43.610;1.440;2023-11-21T13:50:17;7.28;;;2.30;;
35634;SDS011;21757;43.610;1.440;2023-11-21T13:52:51;6.47;;;2.67;;
35634;SDS011;21757;43.610;1.440;2023-11-21T13:55:18;3.70;;;2.10;;
35634;SDS011;21757;43.610;1.440;2023-11-21T13:57:44;3.35;;;2.05;;
35634;SDS011;21757;43.610;1.440;2023-11-21T14:00:15;4.22;;;2.20;;
35634;SDS011;21757;43.610;1.440;2023-11-21T14:02:59;4.15;;;2.25;;
35634;SDS011;21757;43.610;1.440;2023-11-21T14:05:25;6.25;;;2.28;;
35634;SDS011;21757;43.610;1.440;2023-11-21T14:07:54;4.78;;;2.15;;
35634;SDS011;21757;43.610;1.440;2023-11-21T14:10:21;4.90;;;2.28;;
35634;SDS011;21757;43.610;1.440;2023-11-21T14:12:49;3.22;;;2.25;;
35634;SDS011;21757;43.610;1.440;2023-11-21T14:15:15;3.10;;;2.42;;
35634;SDS011;21757;43.610;1.440;2023-11-21T14:17:44;7.88;;;3.13;;
35634;SDS011;21757;43.610;1.440;2023-11-21T14:20:10;6.22;;;2.70;;
35634;SDS011;21757;43.610;1.440;2023-11-21T14:22:41;6.53;;;2.65;;
35634;SDS011;21757;43.610;1.440;2023-11-21T14:25:07;7.22;;;2.50;;
35634;SDS011;21757;43.610;1.440;2023-11-21T14:27:32;5.85;;;2.40;;
35634;SDS011;21757;43.610;1.440;2023-11-21T14:29:58;5.13;;;2.17;;
35634;SDS011;21757;43.610;1.440;2023-11-21T14:32:24;5.85;;;2.67;;
35634;SDS011;21757;43.610;1.440;2023-11-21T14:34:51;5.95;;;2.50;;
35634;SDS011;21757;43.610;1.440;2023-11-21T14:37:17;4.80;;;2.50;;
35634;SDS011;21757;43.610;1.440;2023-11-21T14:39:42;3.65;;;2.22;;
35634;SDS011;21757;43.610;1.440;2023-11-21T14:42:12;6.57;;;2.55;;
35634;SDS011;21757;43.610;1.440;2023-11-21T14:44:40;5.63;;;2.33;;
35634;SDS011;21757;43.610;1.440;2023-11-21T14:47:07;3.97;;;2.58;;
35634;SDS011;21757;43.610;1.440;2023-11-21T14:49:43;5.80;;;3.20;;
35634;SDS011;21757;43.610;1.440;2023-11-21T14:52:18;3.22;;;2.30;;
35634;SDS011;21757;43.610;1.440;2023-11-21T14:54:59;4.53;;;2.40;;
35634;SDS011;21757;43.610;1.440;2023-11-21T14:57:44;4.40;;;2.35;;
35634;SDS011;21757;43.610;1.440;2023-11-21T15:00:15;6.28;;;2.17;;
35634;SDS011;21757;43.610;1.440;2023-11-21T15:03:07;4.40;;;2.00;;
35634;SDS011;21757;43.610;1.440;2023-11-21T15:05:34;7.00;;;2.40;;
35634;SDS011;21757;43.610;1.440;2023-11-21T15:08:00;6.50;;;2.75;;
35634;SDS011;21757;43.610;1.440;2023-11-21T15:10:53;5.57;;;2.58;;